Storm Events Database

Event Details

Event Hail
Magnitude 0.88 in.
State VIRGINIA
County/Area PATRICK
WFO RNK
Begin Date 06/09/2011 12:00:00 EST-5
Begin Range 5
Begin Azimuth SSW
Begin Location CLAUDVILLE
Begin Lat/Lon 36.58/-80.35
End Date 06/09/2011 12:00:00 EST-5
Deaths Direct/Indirect 0/0 (fatality details below, when available...)
Injuries Direct/Indirect 0/0
Property Damage
Crop Damage
Episode Narrative Despite being under the influence by an area of high pressure, enough ridge top convergence of winds took place to help facilitate the development of isolated to scattered thunderstorms. A number of these storms reached severe levels with large hail and damaging winds.
Event Narrative


All events for this episode:

Location County/Zone St. Date Time T.Z. Type Mag Dth Inj PrD CrD
Totals: 0 0 283.20K 0.00K
CLAUDVILLE PATRICK CO. VA 06/09/2011 12:00 EST-5 Hail 0.88 in. 0 0 0.00K 0.00K
COPPER HILL FLOYD CO. VA 06/09/2011 14:39 EST-5 Hail 1.00 in. 0 0 0.00K 0.00K
INDEPENDENCE GRAYSON CO. VA 06/09/2011 14:56 EST-5 Hail 1.00 in. 0 0 0.00K 0.00K
CHECK FLOYD CO. VA 06/09/2011 15:08 EST-5 Hail 0.88 in. 0 0 0.00K 0.00K
WOODLAWN CARROLL CO. VA 06/09/2011 15:30 EST-5 Hail 1.00 in. 0 0 0.00K 0.00K
BACOVA JCT BATH CO. VA 06/09/2011 15:45 EST-5 Thunderstorm Wind 50 kts. EG 0 0 0.90K 0.00K
CALLISON BATH CO. VA 06/09/2011 15:56 EST-5 Thunderstorm Wind 50 kts. EG 0 0 1.80K 0.00K
WYTHEVILLE ARPT WYTHE CO. VA 06/09/2011 16:17 EST-5 Hail 1.50 in. 0 0 0.00K 0.00K
COLEMAN STORE WYTHE CO. VA 06/09/2011 16:17 EST-5 Hail 0.88 in. 0 0 0.00K 0.00K
MAX MEADOWS WYTHE CO. VA 06/09/2011 16:22 EST-5 Hail 1.00 in. 0 0 0.00K 0.00K
CASCADE PITTSYLVANIA CO. VA 06/09/2011 16:30 EST-5 Hail 1.00 in. 0 0 0.00K 0.00K
CEDAR BLUFF TAZEWELL CO. VA 06/09/2011 16:56 EST-5 Hail 1.00 in. 0 0 0.00K 0.00K
MALDEN SPGS TAZEWELL CO. VA 06/09/2011 17:00 EST-5 Hail 1.25 in. 0 0 0.00K 0.00K
MALDEN SPGS TAZEWELL CO. VA 06/09/2011 17:00 EST-5 Thunderstorm Wind 50 kts. EG 0 0 2.50K 0.00K
TRINITY BOTETOURT CO. VA 06/09/2011 17:00 EST-5 Thunderstorm Wind 50 kts. EG 0 0 4.50K 0.00K
CALLANDS PITTSYLVANIA CO. VA 06/09/2011 17:00 EST-5 Thunderstorm Wind 50 kts. EG 0 0 4.50K 0.00K
CHRISTIANSBURG MONTGOMERY CO. VA 06/09/2011 17:08 EST-5 Hail 1.00 in. 0 0 0.00K 0.00K
CHRISTIANSBURG MONTGOMERY CO. VA 06/09/2011 17:15 EST-5 Hail 1.00 in. 0 0 0.00K 0.00K
CAMBRIA MONTGOMERY CO. VA 06/09/2011 17:21 EST-5 Hail 1.25 in. 0 0 0.00K 0.00K
BLACKSBURG VPI ARPT MONTGOMERY CO. VA 06/09/2011 17:32 EST-5 Hail 1.25 in. 0 0 0.00K 0.00K
MERRIMAC MONTGOMERY CO. VA 06/09/2011 17:35 EST-5 Hail 1.00 in. 0 0 0.00K 0.00K
BLACKSBURG VPI ARPT MONTGOMERY CO. VA 06/09/2011 17:45 EST-5 Hail 1.25 in. 0 0 0.00K 0.00K
CERES BLAND CO. VA 06/09/2011 17:45 EST-5 Flash Flood 0 0 250.00K 0.00K
CERES BLAND CO. VA 06/09/2011 18:00 EST-5 Hail 0.75 in. 0 0 0.00K 0.00K
BRADSHAW ROANOKE CO. VA 06/09/2011 18:05 EST-5 Thunderstorm Wind 50 kts. EG 0 0 5.00K 0.00K
GRAPEFIELD BLAND CO. VA 06/09/2011 18:07 EST-5 Hail 0.88 in. 0 0 0.00K 0.00K
GRAPEFIELD BLAND CO. VA 06/09/2011 18:07 EST-5 Thunderstorm Wind 50 kts. EG 0 0 5.00K 0.00K
PEMBROKE GILES CO. VA 06/09/2011 18:35 EST-5 Hail 1.25 in. 0 0 0.00K 0.00K
STAFFORDSVILLE GILES CO. VA 06/09/2011 18:55 EST-5 Thunderstorm Wind 50 kts. EG 0 0 4.50K 0.00K
NARROWS GILES CO. VA 06/09/2011 18:55 EST-5 Thunderstorm Wind 50 kts. EG 0 0 4.50K 0.00K
Totals: 0 0 283.20K 0.00K